Terminal Aerodrome Forecast
Issued by NWS Cleveland, OH

Home | Current Version | Previous Version | Text Only | Print | Product List | Glossary Off
Versions: 1 2 3 4 5 6 7 8 9 10 11 12 13 14 15 16 17 18 19 20

022
FTUS41 KCLE 212028 AAB
TAFTOL
TAF AMD
KTOL 212028Z 2120/2218 08010KT 5SM -SHRA BKN025 OVC040
      TEMPO 2121/2124 1SM +TSRA OVC012CB
     FM220000 10011KT 5SM -SHRA OVC020
     FM220300 12005KT 5SM BR VCSH OVC012
     FM220900 18004KT 2SM BR BKN008 OVC012=

USA.gov is the U.S. government's official web portal to all federal, state and local government web resources and services.